Pope, Illinois
Current Conditions -  °F | °C
As of 8:15 AM on Monday 26 Jan 2015 (Local Time) from KSLO Reporting Station
Clear Clear  
Wind Chill: 18°   Ceiling: Unl
Heat Index: 27°   Visibility: 10mi
Dew Point: 21°   Wind: 9mph
Humidity: 78%   Direction: 300°WNW
Pressure: 30.03"   Gusts: NA
Location:  38.7613°N, 89.0868°W
Report Text: KSLO 261415Z AUTO 30008KT 10SM CLR M03/M06 A3003 RMK AO2 T10261059
Loading
Personal Weather Stations






























Interactive Weather Map New forecast layout! Learn more

10-Day Weather Forecast

Advertisements
Track Severe Weather on mobile